createdAt,value
2023-10-02T00:13:29.180Z,100
2023-10-02T00:28:25.050Z,100
2023-10-02T00:43:21.021Z,100
2023-10-02T00:58:16.901Z,100
2023-10-02T01:13:12.868Z,100
2023-10-02T01:28:08.939Z,100
2023-10-02T01:43:05.164Z,100
2023-10-02T01:58:01.499Z,100
2023-10-02T02:12:57.958Z,100
2023-10-02T02:27:53.756Z,100
2023-10-02T02:42:50.421Z,100
2023-10-02T02:57:47.091Z,100
2023-10-02T03:12:42.938Z,100
2023-10-02T03:27:39.024Z,100
2023-10-02T03:42:35.672Z,100
2023-10-02T03:57:32.030Z,100
2023-10-02T04:12:28.545Z,100
2023-10-02T04:27:24.402Z,100
2023-10-02T04:42:20.976Z,100
2023-10-02T04:57:16.562Z,100
2023-10-02T05:12:12.837Z,100
2023-10-02T05:27:09.195Z,100
2023-10-02T05:42:05.505Z,100
2023-10-02T05:57:01.415Z,100
2023-10-02T06:11:57.582Z,100
2023-10-02T06:26:53.899Z,100
2023-10-02T06:41:49.553Z,100
2023-10-02T06:56:46.381Z,100
2023-10-02T07:11:42.452Z,100
2023-10-02T07:26:39.236Z,100
2023-10-02T07:41:36.123Z,100
2023-10-02T07:56:32.688Z,100
2023-10-02T08:11:28.366Z,100
2023-10-02T08:26:27.317Z,100
2023-10-02T08:41:21.704Z,100
2023-10-02T08:56:18.506Z,100
2023-10-02T09:11:15.027Z,100
2023-10-02T09:26:12.201Z,100
2023-10-02T09:41:09.210Z,100
2023-10-02T09:56:06.320Z,100
2023-10-02T10:11:03.181Z,100
2023-10-02T10:26:00.092Z,100
2023-10-02T10:40:57.039Z,100
2023-10-02T10:55:53.890Z,100
2023-10-02T11:10:50.566Z,100
2023-10-02T11:25:47.622Z,100
2023-10-02T11:40:45.145Z,100
2023-10-02T11:55:41.667Z,97.25
2023-10-02T12:10:38.130Z,83.28
2023-10-02T12:25:34.758Z,81.43
2023-10-02T12:40:31.316Z,71.9
2023-10-02T12:55:27.735Z,68.81
2023-10-02T13:10:24.146Z,67.92
2023-10-02T13:25:20.431Z,60.01
2023-10-02T13:40:16.947Z,58.71
2023-10-02T13:55:13.512Z,59.73
2023-10-02T14:10:09.871Z,60.35
2023-10-02T14:25:05.868Z,66.81
2023-10-02T14:40:01.633Z,62.6
2023-10-02T14:54:57.508Z,60.73
2023-10-02T15:09:53.688Z,63.36
2023-10-02T15:24:49.695Z,65.92
2023-10-02T15:39:45.680Z,64.58
2023-10-02T15:54:43.001Z,55.55
2023-10-02T16:09:37.928Z,55.47
2023-10-02T16:24:34.166Z,63.06
2023-10-02T16:39:30.474Z,89.79
2023-10-02T16:54:26.393Z,100
2023-10-02T17:09:21.143Z,100
2023-10-02T17:24:16.972Z,100
2023-10-02T17:39:12.972Z,100
2023-10-02T17:54:08.475Z,100
2023-10-02T18:09:04.394Z,100
2023-10-02T18:24:00.307Z,100
2023-10-02T18:38:56.143Z,100
2023-10-02T18:53:52.241Z,100
2023-10-02T19:08:48.246Z,100
2023-10-02T19:23:44.420Z,100
2023-10-02T19:38:40.385Z,100
2023-10-02T19:53:36.338Z,100
2023-10-02T20:08:32.591Z,100
2023-10-02T20:23:34.095Z,100
2023-10-02T20:38:24.344Z,100
2023-10-02T20:53:20.619Z,100
2023-10-02T21:08:16.601Z,100
2023-10-02T21:23:12.539Z,100
2023-10-02T21:38:08.845Z,100
2023-10-02T21:53:05.517Z,100
2023-10-02T22:08:01.254Z,100
2023-10-02T22:22:57.196Z,100
2023-10-02T22:37:54.144Z,100
2023-10-02T22:52:50.347Z,100
2023-10-02T23:07:46.360Z,100
2023-10-02T23:22:42.817Z,100
2023-10-02T23:37:39.161Z,100
2023-10-02T23:52:35.129Z,100
